sensor_id;sensor_type;location;lat;lon;timestamp;temperature;humidity
5278;DHT22;2662;51.194;6.614;2023-04-06T00:01:12;3.50;99.90
5278;DHT22;2662;51.194;6.614;2023-04-06T00:03:39;3.50;99.90
5278;DHT22;2662;51.194;6.614;2023-04-06T00:06:06;3.40;99.90
5278;DHT22;2662;51.194;6.614;2023-04-06T00:08:33;3.40;99.90
5278;DHT22;2662;51.194;6.614;2023-04-06T00:11:01;3.40;99.90
5278;DHT22;2662;51.194;6.614;2023-04-06T00:13:28;3.40;99.90
5278;DHT22;2662;51.194;6.614;2023-04-06T00:15:54;3.30;99.90
5278;DHT22;2662;51.194;6.614;2023-04-06T00:18:22;3.30;99.90
5278;DHT22;2662;51.194;6.614;2023-04-06T00:20:49;3.30;99.90
5278;DHT22;2662;51.194;6.614;2023-04-06T00:23:16;3.30;99.90
5278;DHT22;2662;51.194;6.614;2023-04-06T00:25:43;3.30;99.90
5278;DHT22;2662;51.194;6.614;2023-04-06T00:28:11;3.40;99.90
5278;DHT22;2662;51.194;6.614;2023-04-06T00:30:38;3.40;99.90
5278;DHT22;2662;51.194;6.614;2023-04-06T00:33:05;3.40;99.90
5278;DHT22;2662;51.194;6.614;2023-04-06T00:35:32;3.40;99.90
5278;DHT22;2662;51.194;6.614;2023-04-06T00:37:58;3.30;99.90
5278;DHT22;2662;51.194;6.614;2023-04-06T00:40:26;3.30;99.90
5278;DHT22;2662;51.194;6.614;2023-04-06T00:42:54;3.30;99.90
5278;DHT22;2662;51.194;6.614;2023-04-06T00:45:22;3.20;99.90
5278;DHT22;2662;51.194;6.614;2023-04-06T00:47:48;3.20;99.90
5278;DHT22;2662;51.194;6.614;2023-04-06T00:50:16;3.20;99.90
5278;DHT22;2662;51.194;6.614;2023-04-06T00:52:43;3.20;99.90
5278;DHT22;2662;51.194;6.614;2023-04-06T00:55:10;3.10;99.90
5278;DHT22;2662;51.194;6.614;2023-04-06T00:57:36;3.10;99.90
5278;DHT22;2662;51.194;6.614;2023-04-06T01:00:04;3.00;99.90
5278;DHT22;2662;51.194;6.614;2023-04-06T01:02:33;3.00;99.90
5278;DHT22;2662;51.194;6.614;2023-04-06T01:05:00;3.10;99.90
5278;DHT22;2662;51.194;6.614;2023-04-06T01:07:27;3.00;99.90
5278;DHT22;2662;51.194;6.614;2023-04-06T01:09:54;2.90;99.90
5278;DHT22;2662;51.194;6.614;2023-04-06T01:12:21;2.80;99.90
5278;DHT22;2662;51.194;6.614;2023-04-06T01:14:48;2.80;99.90
5278;DHT22;2662;51.194;6.614;2023-04-06T01:17:15;2.70;99.90
5278;DHT22;2662;51.194;6.614;2023-04-06T01:19:43;2.70;99.90
5278;DHT22;2662;51.194;6.614;2023-04-06T01:22:15;2.70;99.90
5278;DHT22;2662;51.194;6.614;2023-04-06T01:24:42;2.70;99.90
5278;DHT22;2662;51.194;6.614;2023-04-06T01:27:09;2.70;99.90
5278;DHT22;2662;51.194;6.614;2023-04-06T01:29:36;2.60;99.90
5278;DHT22;2662;51.194;6.614;2023-04-06T01:32:03;2.60;99.90
5278;DHT22;2662;51.194;6.614;2023-04-06T01:34:30;2.60;99.90
5278;DHT22;2662;51.194;6.614;2023-04-06T01:36:57;2.60;99.90
5278;DHT22;2662;51.194;6.614;2023-04-06T01:39:26;2.50;99.90
5278;DHT22;2662;51.194;6.614;2023-04-06T01:41:52;2.50;99.90
5278;DHT22;2662;51.194;6.614;2023-04-06T01:44:19;2.50;99.90
5278;DHT22;2662;51.194;6.614;2023-04-06T01:46:46;2.50;99.90
5278;DHT22;2662;51.194;6.614;2023-04-06T01:49:13;2.50;99.90
5278;DHT22;2662;51.194;6.614;2023-04-06T01:51:40;2.50;99.90
5278;DHT22;2662;51.194;6.614;2023-04-06T01:54:06;2.40;99.90
5278;DHT22;2662;51.194;6.614;2023-04-06T01:56:34;2.40;99.90
5278;DHT22;2662;51.194;6.614;2023-04-06T01:59:01;2.40;99.90
5278;DHT22;2662;51.194;6.614;2023-04-06T02:01:28;2.40;99.90
5278;DHT22;2662;51.194;6.614;2023-04-06T02:03:55;2.40;99.90
5278;DHT22;2662;51.194;6.614;2023-04-06T02:06:22;2.30;99.90
5278;DHT22;2662;51.194;6.614;2023-04-06T02:08:48;2.30;99.90
5278;DHT22;2662;51.194;6.614;2023-04-06T02:11:15;2.30;99.90
5278;DHT22;2662;51.194;6.614;2023-04-06T02:13:43;2.30;99.90
5278;DHT22;2662;51.194;6.614;2023-04-06T02:16:10;2.40;99.90
5278;DHT22;2662;51.194;6.614;2023-04-06T02:18:37;2.40;99.90
5278;DHT22;2662;51.194;6.614;2023-04-06T02:21:05;2.30;99.90
5278;DHT22;2662;51.194;6.614;2023-04-06T02:23:32;2.30;99.90
5278;DHT22;2662;51.194;6.614;2023-04-06T02:25:58;2.20;99.90
5278;DHT22;2662;51.194;6.614;2023-04-06T02:28:25;2.30;99.90
5278;DHT22;2662;51.194;6.614;2023-04-06T02:30:54;2.30;99.90
5278;DHT22;2662;51.194;6.614;2023-04-06T02:33:20;2.30;99.90
5278;DHT22;2662;51.194;6.614;2023-04-06T02:35:47;2.30;99.90
5278;DHT22;2662;51.194;6.614;2023-04-06T02:38:14;2.30;99.90
5278;DHT22;2662;51.194;6.614;2023-04-06T02:40:41;2.30;99.90
5278;DHT22;2662;51.194;6.614;2023-04-06T02:43:08;2.30;99.90
5278;DHT22;2662;51.194;6.614;2023-04-06T02:45:34;2.20;99.90
5278;DHT22;2662;51.194;6.614;2023-04-06T02:48:03;2.20;99.90
5278;DHT22;2662;51.194;6.614;2023-04-06T02:50:30;2.10;99.90
5278;DHT22;2662;51.194;6.614;2023-04-06T02:52:57;2.10;99.90
5278;DHT22;2662;51.194;6.614;2023-04-06T02:55:24;2.10;99.90
5278;DHT22;2662;51.194;6.614;2023-04-06T02:57:50;2.10;99.90
5278;DHT22;2662;51.194;6.614;2023-04-06T03:00:18;2.00;99.90
5278;DHT22;2662;51.194;6.614;2023-04-06T03:02:45;2.00;99.90
5278;DHT22;2662;51.194;6.614;2023-04-06T03:05:13;2.00;99.90
5278;DHT22;2662;51.194;6.614;2023-04-06T03:07:40;2.00;99.90
5278;DHT22;2662;51.194;6.614;2023-04-06T03:10:08;2.00;99.90
5278;DHT22;2662;51.194;6.614;2023-04-06T03:12:35;2.10;99.90
5278;DHT22;2662;51.194;6.614;2023-04-06T03:15:02;2.10;99.90
5278;DHT22;2662;51.194;6.614;2023-04-06T03:17:29;2.10;99.90
5278;DHT22;2662;51.194;6.614;2023-04-06T03:19:55;2.00;99.90
5278;DHT22;2662;51.194;6.614;2023-04-06T03:22:24;2.00;99.90
5278;DHT22;2662;51.194;6.614;2023-04-06T03:24:50;2.00;99.90
5278;DHT22;2662;51.194;6.614;2023-04-06T03:27:17;2.00;99.90
5278;DHT22;2662;51.194;6.614;2023-04-06T03:29:44;2.00;99.90
5278;DHT22;2662;51.194;6.614;2023-04-06T03:32:11;2.00;99.90
5278;DHT22;2662;51.194;6.614;2023-04-06T03:34:38;2.00;99.90
5278;DHT22;2662;51.194;6.614;2023-04-06T03:37:05;2.10;99.90
5278;DHT22;2662;51.194;6.614;2023-04-06T03:39:33;2.10;99.90
5278;DHT22;2662;51.194;6.614;2023-04-06T03:42:00;2.10;99.90
5278;DHT22;2662;51.194;6.614;2023-04-06T03:44:27;2.10;99.90
5278;DHT22;2662;51.194;6.614;2023-04-06T03:46:54;2.00;99.90
5278;DHT22;2662;51.194;6.614;2023-04-06T03:49:21;2.00;99.90
5278;DHT22;2662;51.194;6.614;2023-04-06T03:51:47;2.00;99.90
5278;DHT22;2662;51.194;6.614;2023-04-06T03:54:14;2.00;99.90
5278;DHT22;2662;51.194;6.614;2023-04-06T03:56:42;2.00;99.90
5278;DHT22;2662;51.194;6.614;2023-04-06T03:59:09;2.10;99.90
5278;DHT22;2662;51.194;6.614;2023-04-06T04:01:36;2.10;99.90
5278;DHT22;2662;51.194;6.614;2023-04-06T04:04:05;2.10;99.90
5278;DHT22;2662;51.194;6.614;2023-04-06T04:06:31;2.10;99.90
5278;DHT22;2662;51.194;6.614;2023-04-06T04:08:58;2.00;99.90
5278;DHT22;2662;51.194;6.614;2023-04-06T04:11:25;2.00;99.90
5278;DHT22;2662;51.194;6.614;2023-04-06T04:13:53;1.90;99.90
5278;DHT22;2662;51.194;6.614;2023-04-06T04:16:20;1.90;99.90
5278;DHT22;2662;51.194;6.614;2023-04-06T04:18:47;1.90;99.90
5278;DHT22;2662;51.194;6.614;2023-04-06T04:21:14;1.90;99.90
5278;DHT22;2662;51.194;6.614;2023-04-06T04:23:41;1.90;99.90
5278;DHT22;2662;51.194;6.614;2023-04-06T04:26:07;1.90;99.90
5278;DHT22;2662;51.194;6.614;2023-04-06T04:28:34;1.90;99.90
5278;DHT22;2662;51.194;6.614;2023-04-06T04:31:03;1.90;99.90
5278;DHT22;2662;51.194;6.614;2023-04-06T04:33:29;1.90;99.90
5278;DHT22;2662;51.194;6.614;2023-04-06T04:35:56;1.90;99.90
5278;DHT22;2662;51.194;6.614;2023-04-06T04:38:23;1.90;99.90
5278;DHT22;2662;51.194;6.614;2023-04-06T04:40:50;2.00;99.90
5278;DHT22;2662;51.194;6.614;2023-04-06T04:43:16;1.90;99.90
5278;DHT22;2662;51.194;6.614;2023-04-06T04:45:43;2.00;99.90
5278;DHT22;2662;51.194;6.614;2023-04-06T04:48:12;2.00;99.90
5278;DHT22;2662;51.194;6.614;2023-04-06T04:50:38;2.10;99.90
5278;DHT22;2662;51.194;6.614;2023-04-06T04:53:05;2.10;99.90
5278;DHT22;2662;51.194;6.614;2023-04-06T04:55:32;2.20;99.90
5278;DHT22;2662;51.194;6.614;2023-04-06T04:57:59;2.20;99.90
5278;DHT22;2662;51.194;6.614;2023-04-06T05:00:25;2.20;99.90
5278;DHT22;2662;51.194;6.614;2023-04-06T05:02:52;2.20;99.90
5278;DHT22;2662;51.194;6.614;2023-04-06T05:05:20;2.30;99.90
5278;DHT22;2662;51.194;6.614;2023-04-06T05:07:47;2.20;99.90
5278;DHT22;2662;51.194;6.614;2023-04-06T05:10:14;2.20;99.90
5278;DHT22;2662;51.194;6.614;2023-04-06T05:12:41;2.20;99.90
5278;DHT22;2662;51.194;6.614;2023-04-06T05:15:09;2.30;99.90
5278;DHT22;2662;51.194;6.614;2023-04-06T05:17:36;2.30;99.90
5278;DHT22;2662;51.194;6.614;2023-04-06T05:20:03;2.40;99.90
5278;DHT22;2662;51.194;6.614;2023-04-06T05:22:32;2.50;99.90
5278;DHT22;2662;51.194;6.614;2023-04-06T05:24:59;2.70;99.90
5278;DHT22;2662;51.194;6.614;2023-04-06T05:27:25;2.80;99.90
5278;DHT22;2662;51.194;6.614;2023-04-06T05:29:52;3.00;99.90
5278;DHT22;2662;51.194;6.614;2023-04-06T05:32:19;3.10;99.90
5278;DHT22;2662;51.194;6.614;2023-04-06T05:34:48;3.40;99.90
5278;DHT22;2662;51.194;6.614;2023-04-06T05:37:14;3.50;99.90
5278;DHT22;2662;51.194;6.614;2023-04-06T05:39:43;3.60;99.90
5278;DHT22;2662;51.194;6.614;2023-04-06T05:42:09;3.80;99.90
5278;DHT22;2662;51.194;6.614;2023-04-06T05:44:37;4.00;99.90
5278;DHT22;2662;51.194;6.614;2023-04-06T05:47:04;4.10;99.90
5278;DHT22;2662;51.194;6.614;2023-04-06T05:49:30;4.30;99.90
5278;DHT22;2662;51.194;6.614;2023-04-06T05:51:57;4.40;99.90
5278;DHT22;2662;51.194;6.614;2023-04-06T05:54:24;4.60;99.90
5278;DHT22;2662;51.194;6.614;2023-04-06T05:56:52;4.70;99.90
5278;DHT22;2662;51.194;6.614;2023-04-06T05:59:19;4.80;99.90
5278;DHT22;2662;51.194;6.614;2023-04-06T06:01:46;5.00;99.90
5278;DHT22;2662;51.194;6.614;2023-04-06T06:04:13;5.20;99.90
5278;DHT22;2662;51.194;6.614;2023-04-06T06:06:40;5.30;99.90
5278;DHT22;2662;51.194;6.614;2023-04-06T06:09:07;5.40;99.90
5278;DHT22;2662;51.194;6.614;2023-04-06T06:11:34;5.50;99.90
5278;DHT22;2662;51.194;6.614;2023-04-06T06:14:02;5.80;99.90
5278;DHT22;2662;51.194;6.614;2023-04-06T06:16:29;6.10;99.90
5278;DHT22;2662;51.194;6.614;2023-04-06T06:18:55;7.40;99.90
5278;DHT22;2662;51.194;6.614;2023-04-06T06:21:23;9.40;99.90
5278;DHT22;2662;51.194;6.614;2023-04-06T06:23:50;10.90;99.90
5278;DHT22;2662;51.194;6.614;2023-04-06T06:26:17;12.20;99.90
5278;DHT22;2662;51.194;6.614;2023-04-06T06:28:43;13.60;99.90
5278;DHT22;2662;51.194;6.614;2023-04-06T06:31:12;14.90;99.50
5278;DHT22;2662;51.194;6.614;2023-04-06T06:33:38;15.90;98.20
5278;DHT22;2662;51.194;6.614;2023-04-06T06:36:06;16.70;94.80
5278;DHT22;2662;51.194;6.614;2023-04-06T06:38:32;17.20;93.30
5278;DHT22;2662;51.194;6.614;2023-04-06T06:40:59;18.10;91.80
5278;DHT22;2662;51.194;6.614;2023-04-06T06:43:26;18.70;90.10
5278;DHT22;2662;51.194;6.614;2023-04-06T06:45:53;19.20;86.60
5278;DHT22;2662;51.194;6.614;2023-04-06T06:48:21;18.40;82.60
5278;DHT22;2662;51.194;6.614;2023-04-06T06:50:48;16.10;83.70
5278;DHT22;2662;51.194;6.614;2023-04-06T06:53:15;14.90;86.60
5278;DHT22;2662;51.194;6.614;2023-04-06T06:55:42;14.00;89.80
5278;DHT22;2662;51.194;6.614;2023-04-06T06:58:09;13.10;91.20
5278;DHT22;2662;51.194;6.614;2023-04-06T07:00:36;12.30;92.50
5278;DHT22;2662;51.194;6.614;2023-04-06T07:03:03;11.80;94.10
5278;DHT22;2662;51.194;6.614;2023-04-06T07:05:32;11.40;95.60
5278;DHT22;2662;51.194;6.614;2023-04-06T07:07:59;11.00;96.70
5278;DHT22;2662;51.194;6.614;2023-04-06T07:10:26;10.50;98.70
5278;DHT22;2662;51.194;6.614;2023-04-06T07:12:52;10.50;99.90
5278;DHT22;2662;51.194;6.614;2023-04-06T07:15:19;10.40;99.90
5278;DHT22;2662;51.194;6.614;2023-04-06T07:17:46;10.60;99.90
5278;DHT22;2662;51.194;6.614;2023-04-06T07:20:13;10.40;99.90
5278;DHT22;2662;51.194;6.614;2023-04-06T07:22:42;10.60;99.90
5278;DHT22;2662;51.194;6.614;2023-04-06T07:25:09;10.80;99.90
5278;DHT22;2662;51.194;6.614;2023-04-06T07:27:36;11.10;99.90
5278;DHT22;2662;51.194;6.614;2023-04-06T07:30:03;11.40;99.90
5278;DHT22;2662;51.194;6.614;2023-04-06T07:32:31;11.60;99.90
5278;DHT22;2662;51.194;6.614;2023-04-06T07:35:00;11.70;99.90
5278;DHT22;2662;51.194;6.614;2023-04-06T07:37:26;12.20;99.90
5278;DHT22;2662;51.194;6.614;2023-04-06T07:39:54;12.50;99.30
5278;DHT22;2662;51.194;6.614;2023-04-06T07:42:21;13.00;99.10
5278;DHT22;2662;51.194;6.614;2023-04-06T07:44:48;13.30;97.30
5278;DHT22;2662;51.194;6.614;2023-04-06T07:47:15;13.50;96.50
5278;DHT22;2662;51.194;6.614;2023-04-06T07:49:42;13.50;96.80
5278;DHT22;2662;51.194;6.614;2023-04-06T07:52:08;13.80;96.90
5278;DHT22;2662;51.194;6.614;2023-04-06T07:54:35;13.90;96.90
5278;DHT22;2662;51.194;6.614;2023-04-06T07:57:03;14.30;95.90
5278;DHT22;2662;51.194;6.614;2023-04-06T07:59:30;14.60;95.70
5278;DHT22;2662;51.194;6.614;2023-04-06T08:01:57;14.50;95.10
5278;DHT22;2662;51.194;6.614;2023-04-06T08:04:24;14.40;95.10
5278;DHT22;2662;51.194;6.614;2023-04-06T08:06:51;14.40;94.80
5278;DHT22;2662;51.194;6.614;2023-04-06T08:09:17;14.50;95.60
5278;DHT22;2662;51.194;6.614;2023-04-06T08:11:44;14.80;95.20
5278;DHT22;2662;51.194;6.614;2023-04-06T08:14:13;14.50;94.70
5278;DHT22;2662;51.194;6.614;2023-04-06T08:16:40;14.30;94.90
5278;DHT22;2662;51.194;6.614;2023-04-06T08:19:07;14.10;95.70
5278;DHT22;2662;51.194;6.614;2023-04-06T08:21:35;14.10;95.80
5278;DHT22;2662;51.194;6.614;2023-04-06T08:24:02;14.40;96.10
5278;DHT22;2662;51.194;6.614;2023-04-06T08:26:29;14.40;95.70
5278;DHT22;2662;51.194;6.614;2023-04-06T08:28:55;14.80;95.70
5278;DHT22;2662;51.194;6.614;2023-04-06T08:31:24;15.20;95.10
5278;DHT22;2662;51.194;6.614;2023-04-06T08:33:51;15.70;94.80
5278;DHT22;2662;51.194;6.614;2023-04-06T08:36:18;16.60;94.10
5278;DHT22;2662;51.194;6.614;2023-04-06T08:38:49;17.30;93.90
5278;DHT22;2662;51.194;6.614;2023-04-06T08:41:16;17.70;93.40
5278;DHT22;2662;51.194;6.614;2023-04-06T08:43:46;18.40;92.50
5278;DHT22;2662;51.194;6.614;2023-04-06T08:46:13;18.70;91.50
5278;DHT22;2662;51.194;6.614;2023-04-06T08:48:42;18.70;90.40
5278;DHT22;2662;51.194;6.614;2023-04-06T08:51:10;18.50;88.90
5278;DHT22;2662;51.194;6.614;2023-04-06T08:53:37;17.70;88.90
5278;DHT22;2662;51.194;6.614;2023-04-06T08:56:05;17.20;90.10
5278;DHT22;2662;51.194;6.614;2023-04-06T08:58:34;16.90;90.20
5278;DHT22;2662;51.194;6.614;2023-04-06T09:01:02;16.80;90.80
5278;DHT22;2662;51.194;6.614;2023-04-06T09:03:33;16.50;90.80
5278;DHT22;2662;51.194;6.614;2023-04-06T09:06:03;16.30;90.90
5278;DHT22;2662;51.194;6.614;2023-04-06T09:08:30;16.20;90.90
5278;DHT22;2662;51.194;6.614;2023-04-06T09:10:57;16.30;91.60
5278;DHT22;2662;51.194;6.614;2023-04-06T09:13:23;16.20;91.00
5278;DHT22;2662;51.194;6.614;2023-04-06T09:15:59;16.20;90.80
5278;DHT22;2662;51.194;6.614;2023-04-06T09:18:29;16.20;91.60
5278;DHT22;2662;51.194;6.614;2023-04-06T09:20:58;16.20;91.80
5278;DHT22;2662;51.194;6.614;2023-04-06T09:23:26;16.50;91.90
5278;DHT22;2662;51.194;6.614;2023-04-06T09:26:06;16.70;90.90
5278;DHT22;2662;51.194;6.614;2023-04-06T09:28:44;16.70;91.20
5278;DHT22;2662;51.194;6.614;2023-04-06T09:31:12;16.70;91.60
5278;DHT22;2662;51.194;6.614;2023-04-06T09:33:40;16.60;90.50
5278;DHT22;2662;51.194;6.614;2023-04-06T09:36:07;16.70;90.70
5278;DHT22;2662;51.194;6.614;2023-04-06T09:38:38;16.80;90.40
5278;DHT22;2662;51.194;6.614;2023-04-06T09:41:05;17.40;90.80
5278;DHT22;2662;51.194;6.614;2023-04-06T09:43:32;17.50;89.60
5278;DHT22;2662;51.194;6.614;2023-04-06T09:46:00;17.70;90.40
5278;DHT22;2662;51.194;6.614;2023-04-06T09:48:31;18.30;90.00
5278;DHT22;2662;51.194;6.614;2023-04-06T09:51:01;18.60;87.80
5278;DHT22;2662;51.194;6.614;2023-04-06T09:53:30;18.80;88.20
5278;DHT22;2662;51.194;6.614;2023-04-06T09:56:02;19.00;87.60
5278;DHT22;2662;51.194;6.614;2023-04-06T09:58:34;19.00;88.20
5278;DHT22;2662;51.194;6.614;2023-04-06T10:01:08;18.90;87.60
5278;DHT22;2662;51.194;6.614;2023-04-06T10:03:43;18.60;88.20
5278;DHT22;2662;51.194;6.614;2023-04-06T10:06:13;18.50;87.00
5278;DHT22;2662;51.194;6.614;2023-04-06T10:08:42;18.90;89.30
5278;DHT22;2662;51.194;6.614;2023-04-06T10:11:13;20.00;89.50
5278;DHT22;2662;51.194;6.614;2023-04-06T10:13:40;20.80;86.70
5278;DHT22;2662;51.194;6.614;2023-04-06T10:16:07;20.90;87.30
5278;DHT22;2662;51.194;6.614;2023-04-06T10:18:35;20.80;85.30
5278;DHT22;2662;51.194;6.614;2023-04-06T10:21:06;20.70;85.60
5278;DHT22;2662;51.194;6.614;2023-04-06T10:23:36;20.80;84.60
5278;DHT22;2662;51.194;6.614;2023-04-06T10:26:14;20.30;84.20
5278;DHT22;2662;51.194;6.614;2023-04-06T10:28:42;20.10;84.80
5278;DHT22;2662;51.194;6.614;2023-04-06T10:31:09;19.80;85.90
5278;DHT22;2662;51.194;6.614;2023-04-06T10:33:36;19.60;85.80
5278;DHT22;2662;51.194;6.614;2023-04-06T10:36:10;19.20;85.00
5278;DHT22;2662;51.194;6.614;2023-04-06T10:38:39;19.20;86.10
5278;DHT22;2662;51.194;6.614;2023-04-06T10:41:06;18.90;86.80
5278;DHT22;2662;51.194;6.614;2023-04-06T10:43:36;18.50;88.20
5278;DHT22;2662;51.194;6.614;2023-04-06T10:46:05;18.30;88.00
5278;DHT22;2662;51.194;6.614;2023-04-06T10:48:39;18.20;86.90
5278;DHT22;2662;51.194;6.614;2023-04-06T10:51:11;18.10;87.00
5278;DHT22;2662;51.194;6.614;2023-04-06T10:53:38;18.10;87.30
5278;DHT22;2662;51.194;6.614;2023-04-06T10:56:10;18.10;88.30
5278;DHT22;2662;51.194;6.614;2023-04-06T10:58:44;17.90;87.40
5278;DHT22;2662;51.194;6.614;2023-04-06T11:01:11;17.70;87.20
5278;DHT22;2662;51.194;6.614;2023-04-06T11:03:49;17.70;88.30
5278;DHT22;2662;51.194;6.614;2023-04-06T11:06:19;17.30;89.20
5278;DHT22;2662;51.194;6.614;2023-04-06T11:08:46;17.00;89.80
5278;DHT22;2662;51.194;6.614;2023-04-06T11:11:15;16.90;89.90
5278;DHT22;2662;51.194;6.614;2023-04-06T11:13:46;16.90;90.30
5278;DHT22;2662;51.194;6.614;2023-04-06T11:16:14;16.90;91.00
5278;DHT22;2662;51.194;6.614;2023-04-06T11:18:48;16.90;91.40
5278;DHT22;2662;51.194;6.614;2023-04-06T11:21:15;16.80;91.40
5278;DHT22;2662;51.194;6.614;2023-04-06T11:23:42;16.80;92.20
5278;DHT22;2662;51.194;6.614;2023-04-06T11:26:11;16.70;92.30
5278;DHT22;2662;51.194;6.614;2023-04-06T11:28:38;16.90;92.70
5278;DHT22;2662;51.194;6.614;2023-04-06T11:31:07;17.10;92.80
5278;DHT22;2662;51.194;6.614;2023-04-06T11:33:37;17.00;92.30
5278;DHT22;2662;51.194;6.614;2023-04-06T11:36:05;17.10;92.10
5278;DHT22;2662;51.194;6.614;2023-04-06T11:38:32;17.20;92.40
5278;DHT22;2662;51.194;6.614;2023-04-06T11:41:01;17.40;92.80
5278;DHT22;2662;51.194;6.614;2023-04-06T11:43:28;17.50;92.20
5278;DHT22;2662;51.194;6.614;2023-04-06T11:46:03;17.40;91.60
5278;DHT22;2662;51.194;6.614;2023-04-06T11:48:44;17.50;91.80
5278;DHT22;2662;51.194;6.614;2023-04-06T11:51:10;17.90;91.60
5278;DHT22;2662;51.194;6.614;2023-04-06T11:53:43;18.00;91.80
5278;DHT22;2662;51.194;6.614;2023-04-06T11:56:11;18.00;91.00
5278;DHT22;2662;51.194;6.614;2023-04-06T11:58:38;17.90;90.60
5278;DHT22;2662;51.194;6.614;2023-04-06T12:01:05;17.90;90.10
5278;DHT22;2662;51.194;6.614;2023-04-06T12:03:33;17.70;89.50
5278;DHT22;2662;51.194;6.614;2023-04-06T12:06:00;17.60;90.00
5278;DHT22;2662;51.194;6.614;2023-04-06T12:08:26;17.40;90.00
5278;DHT22;2662;51.194;6.614;2023-04-06T12:10:53;17.30;90.20
5278;DHT22;2662;51.194;6.614;2023-04-06T12:13:20;17.40;91.00
5278;DHT22;2662;51.194;6.614;2023-04-06T12:15:47;17.30;90.60
5278;DHT22;2662;51.194;6.614;2023-04-06T12:18:15;17.30;90.80
5278;DHT22;2662;51.194;6.614;2023-04-06T12:20:43;17.40;90.80
5278;DHT22;2662;51.194;6.614;2023-04-06T12:23:10;17.40;91.20
5278;DHT22;2662;51.194;6.614;2023-04-06T12:25:39;17.20;91.70
5278;DHT22;2662;51.194;6.614;2023-04-06T12:28:06;17.30;92.00
5278;DHT22;2662;51.194;6.614;2023-04-06T12:30:34;17.50;92.50
5278;DHT22;2662;51.194;6.614;2023-04-06T12:33:01;17.30;91.60
5278;DHT22;2662;51.194;6.614;2023-04-06T12:35:28;16.90;91.70
5278;DHT22;2662;51.194;6.614;2023-04-06T12:37:56;16.80;91.70
5278;DHT22;2662;51.194;6.614;2023-04-06T12:40:23;16.90;91.80
5278;DHT22;2662;51.194;6.614;2023-04-06T12:42:50;16.90;92.20
5278;DHT22;2662;51.194;6.614;2023-04-06T12:45:17;16.90;92.50
5278;DHT22;2662;51.194;6.614;2023-04-06T12:47:43;17.00;93.00
5278;DHT22;2662;51.194;6.614;2023-04-06T12:50:10;16.90;92.90
5278;DHT22;2662;51.194;6.614;2023-04-06T12:52:37;16.90;92.90
5278;DHT22;2662;51.194;6.614;2023-04-06T12:55:06;17.00;93.30
5278;DHT22;2662;51.194;6.614;2023-04-06T12:57:33;16.80;94.10
5278;DHT22;2662;51.194;6.614;2023-04-06T13:00:00;16.80;94.80
5278;DHT22;2662;51.194;6.614;2023-04-06T13:02:28;16.80;95.60
5278;DHT22;2662;51.194;6.614;2023-04-06T13:04:55;16.60;95.30
5278;DHT22;2662;51.194;6.614;2023-04-06T13:07:22;16.30;95.90
5278;DHT22;2662;51.194;6.614;2023-04-06T13:09:48;16.20;97.20
5278;DHT22;2662;51.194;6.614;2023-04-06T13:12:17;16.20;98.70
5278;DHT22;2662;51.194;6.614;2023-04-06T13:14:44;16.00;99.30
5278;DHT22;2662;51.194;6.614;2023-04-06T13:17:16;15.80;99.90
5278;DHT22;2662;51.194;6.614;2023-04-06T13:19:43;15.50;99.90
5278;DHT22;2662;51.194;6.614;2023-04-06T13:22:09;15.40;99.90
5278;DHT22;2662;51.194;6.614;2023-04-06T13:24:36;15.00;99.90
5278;DHT22;2662;51.194;6.614;2023-04-06T13:27:03;14.60;99.90
5278;DHT22;2662;51.194;6.614;2023-04-06T13:29:32;14.50;99.90
5278;DHT22;2662;51.194;6.614;2023-04-06T13:31:59;14.50;99.90
5278;DHT22;2662;51.194;6.614;2023-04-06T13:34:26;14.40;99.90
5278;DHT22;2662;51.194;6.614;2023-04-06T13:36:53;14.50;99.90
5278;DHT22;2662;51.194;6.614;2023-04-06T13:39:20;14.30;99.90
5278;DHT22;2662;51.194;6.614;2023-04-06T13:41:46;14.20;99.90
5278;DHT22;2662;51.194;6.614;2023-04-06T13:44:13;14.20;99.90
5278;DHT22;2662;51.194;6.614;2023-04-06T13:46:41;14.20;99.90
5278;DHT22;2662;51.194;6.614;2023-04-06T13:49:08;14.20;99.90
5278;DHT22;2662;51.194;6.614;2023-04-06T13:51:35;14.20;99.90
5278;DHT22;2662;51.194;6.614;2023-04-06T13:54:02;14.00;99.90
5278;DHT22;2662;51.194;6.614;2023-04-06T13:56:29;14.00;99.90
5278;DHT22;2662;51.194;6.614;2023-04-06T13:58:56;14.00;99.90
5278;DHT22;2662;51.194;6.614;2023-04-06T14:01:23;13.90;99.90
5278;DHT22;2662;51.194;6.614;2023-04-06T14:03:53;13.90;99.90
5278;DHT22;2662;51.194;6.614;2023-04-06T14:06:20;13.80;99.90
5278;DHT22;2662;51.194;6.614;2023-04-06T14:08:46;13.90;99.90
5278;DHT22;2662;51.194;6.614;2023-04-06T14:11:14;13.70;99.90
5278;DHT22;2662;51.194;6.614;2023-04-06T14:13:41;13.60;99.90
5278;DHT22;2662;51.194;6.614;2023-04-06T14:16:08;13.60;99.90
5278;DHT22;2662;51.194;6.614;2023-04-06T14:18:36;13.40;99.90
5278;DHT22;2662;51.194;6.614;2023-04-06T14:21:04;13.10;99.90
5278;DHT22;2662;51.194;6.614;2023-04-06T14:23:31;13.10;99.90
5278;DHT22;2662;51.194;6.614;2023-04-06T14:26:02;12.80;99.90
5278;DHT22;2662;51.194;6.614;2023-04-06T14:28:29;12.60;99.90
5278;DHT22;2662;51.194;6.614;2023-04-06T14:30:56;12.50;99.90
5278;DHT22;2662;51.194;6.614;2023-04-06T14:33:23;12.40;99.90
5278;DHT22;2662;51.194;6.614;2023-04-06T14:35:50;12.30;99.90
5278;DHT22;2662;51.194;6.614;2023-04-06T14:38:18;12.20;99.90
5278;DHT22;2662;51.194;6.614;2023-04-06T14:40:45;12.00;99.90
5278;DHT22;2662;51.194;6.614;2023-04-06T14:43:12;11.80;99.90
5278;DHT22;2662;51.194;6.614;2023-04-06T14:45:38;11.80;99.90
5278;DHT22;2662;51.194;6.614;2023-04-06T14:48:05;11.80;99.90
5278;DHT22;2662;51.194;6.614;2023-04-06T14:50:33;11.60;99.90
5278;DHT22;2662;51.194;6.614;2023-04-06T14:53:00;11.50;99.90
5278;DHT22;2662;51.194;6.614;2023-04-06T14:55:28;11.30;99.90
5278;DHT22;2662;51.194;6.614;2023-04-06T14:57:56;11.30;99.90
5278;DHT22;2662;51.194;6.614;2023-04-06T15:00:23;11.30;99.90
5278;DHT22;2662;51.194;6.614;2023-04-06T15:02:49;11.30;99.90
5278;DHT22;2662;51.194;6.614;2023-04-06T15:05:16;11.30;99.90
5278;DHT22;2662;51.194;6.614;2023-04-06T15:07:43;11.20;99.90
5278;DHT22;2662;51.194;6.614;2023-04-06T15:10:10;11.30;99.90
5278;DHT22;2662;51.194;6.614;2023-04-06T15:12:38;11.30;99.90
5278;DHT22;2662;51.194;6.614;2023-04-06T15:15:05;11.30;99.90
5278;DHT22;2662;51.194;6.614;2023-04-06T15:17:32;11.20;99.90
5278;DHT22;2662;51.194;6.614;2023-04-06T15:19:59;11.20;99.90
5278;DHT22;2662;51.194;6.614;2023-04-06T15:22:26;11.10;99.90
5278;DHT22;2662;51.194;6.614;2023-04-06T15:24:52;11.00;99.90
5278;DHT22;2662;51.194;6.614;2023-04-06T15:27:19;10.90;99.90
5278;DHT22;2662;51.194;6.614;2023-04-06T15:29:47;10.80;99.90
5278;DHT22;2662;51.194;6.614;2023-04-06T15:32:14;10.80;99.90
5278;DHT22;2662;51.194;6.614;2023-04-06T15:34:41;10.70;99.90
5278;DHT22;2662;51.194;6.614;2023-04-06T15:37:08;10.70;99.90
5278;DHT22;2662;51.194;6.614;2023-04-06T15:39:34;10.70;99.90
5278;DHT22;2662;51.194;6.614;2023-04-06T15:42:03;10.70;99.90
5278;DHT22;2662;51.194;6.614;2023-04-06T15:44:36;10.70;99.90
5278;DHT22;2662;51.194;6.614;2023-04-06T15:47:04;10.60;99.90
5278;DHT22;2662;51.194;6.614;2023-04-06T15:49:31;10.60;99.90
5278;DHT22;2662;51.194;6.614;2023-04-06T15:51:57;10.50;99.90
5278;DHT22;2662;51.194;6.614;2023-04-06T15:54:24;10.40;99.90
5278;DHT22;2662;51.194;6.614;2023-04-06T15:56:51;10.30;99.90
5278;DHT22;2662;51.194;6.614;2023-04-06T15:59:18;10.30;99.90
5278;DHT22;2662;51.194;6.614;2023-04-06T16:01:45;10.30;99.90
5278;DHT22;2662;51.194;6.614;2023-04-06T16:04:13;10.20;99.90
5278;DHT22;2662;51.194;6.614;2023-04-06T16:06:40;10.10;99.90
5278;DHT22;2662;51.194;6.614;2023-04-06T16:09:06;10.10;99.90